sensor_id;sensor_type;location;lat;lon;timestamp;pressure;altitude;pressure_sealevel;temperature;humidity
80502;BME280;70023;51.190;6.808;2023-10-09T00:01:07;101936.06;;;14.24;73.82
80502;BME280;70023;51.190;6.808;2023-10-09T00:06:17;101928.03;;;14.17;73.87
80502;BME280;70023;51.190;6.808;2023-10-09T00:11:31;101941.09;;;14.14;73.81
80502;BME280;70023;51.190;6.808;2023-10-09T00:16:44;101932.63;;;14.10;73.78
80502;BME280;70023;51.190;6.808;2023-10-09T00:21:49;101923.38;;;14.06;74.03
80502;BME280;70023;51.190;6.808;2023-10-09T00:26:56;101928.56;;;14.01;73.80
80502;BME280;70023;51.190;6.808;2023-10-09T00:32:12;101926.53;;;13.96;74.00
80502;BME280;70023;51.190;6.808;2023-10-09T00:37:18;101908.41;;;13.92;73.71
80502;BME280;70023;51.190;6.808;2023-10-09T00:42:28;101902.84;;;13.87;73.95
80502;BME280;70023;51.190;6.808;2023-10-09T00:47:33;101902.69;;;13.82;74.08
80502;BME280;70023;51.190;6.808;2023-10-09T00:52:41;101902.28;;;13.78;73.73
80502;BME280;70023;51.190;6.808;2023-10-09T00:57:58;101903.34;;;13.77;73.53
80502;BME280;70023;51.190;6.808;2023-10-09T01:03:05;101890.34;;;13.74;74.26
80502;BME280;70023;51.190;6.808;2023-10-09T01:08:18;101876.53;;;13.71;74.47
80502;BME280;70023;51.190;6.808;2023-10-09T01:13:44;101879.44;;;13.69;73.71
80502;BME280;70023;51.190;6.808;2023-10-09T01:18:47;101875.53;;;13.65;73.64
80502;BME280;70023;51.190;6.808;2023-10-09T01:23:51;101862.31;;;13.64;73.44
80502;BME280;70023;51.190;6.808;2023-10-09T01:29:08;101867.50;;;13.65;73.46
80502;BME280;70023;51.190;6.808;2023-10-09T01:34:23;101853.25;;;13.65;73.81
80502;BME280;70023;51.190;6.808;2023-10-09T01:39:55;101847.03;;;13.64;73.63
80502;BME280;70023;51.190;6.808;2023-10-09T01:45:19;101834.03;;;13.61;73.57
80502;BME280;70023;51.190;6.808;2023-10-09T01:50:21;101856.34;;;13.62;72.98
80502;BME280;70023;51.190;6.808;2023-10-09T01:55:31;101856.56;;;13.60;73.06
80502;BME280;70023;51.190;6.808;2023-10-09T02:00:38;101867.31;;;13.60;73.63
80502;BME280;70023;51.190;6.808;2023-10-09T02:05:43;101867.91;;;13.62;73.48
80502;BME280;70023;51.190;6.808;2023-10-09T02:10:46;101863.56;;;13.61;73.25
80502;BME280;70023;51.190;6.808;2023-10-09T02:15:48;101864.41;;;13.62;73.18
80502;BME280;70023;51.190;6.808;2023-10-09T02:21:04;101877.81;;;13.62;73.43
80502;BME280;70023;51.190;6.808;2023-10-09T02:26:06;101866.25;;;13.61;72.84
80502;BME280;70023;51.190;6.808;2023-10-09T02:31:09;101859.03;;;13.62;73.26
80502;BME280;70023;51.190;6.808;2023-10-09T02:36:12;101850.16;;;13.61;73.09
80502;BME280;70023;51.190;6.808;2023-10-09T02:41:20;101854.50;;;13.62;72.74
80502;BME280;70023;51.190;6.808;2023-10-09T02:46:30;101859.25;;;13.60;72.86
80502;BME280;70023;51.190;6.808;2023-10-09T02:51:34;101854.91;;;13.59;72.25
80502;BME280;70023;51.190;6.808;2023-10-09T02:56:53;101855.16;;;13.58;72.41
80502;BME280;70023;51.190;6.808;2023-10-09T03:02:07;101842.38;;;13.53;72.41
80502;BME280;70023;51.190;6.808;2023-10-09T03:07:08;101838.88;;;13.53;73.17
80502;BME280;70023;51.190;6.808;2023-10-09T03:12:14;101846.09;;;13.52;72.54
80502;BME280;70023;51.190;6.808;2023-10-09T03:17:28;101840.72;;;13.52;73.04
80502;BME280;70023;51.190;6.808;2023-10-09T03:22:29;101829.16;;;13.52;72.64
80502;BME280;70023;51.190;6.808;2023-10-09T03:27:38;101833.50;;;13.53;72.93
80502;BME280;70023;51.190;6.808;2023-10-09T03:32:54;101819.25;;;13.52;73.10
80502;BME280;70023;51.190;6.808;2023-10-09T03:37:56;101819.84;;;13.54;72.37
80502;BME280;70023;51.190;6.808;2023-10-09T03:43:06;101822.53;;;13.54;72.67
80502;BME280;70023;51.190;6.808;2023-10-09T03:48:10;101808.09;;;13.55;72.19
80502;BME280;70023;51.190;6.808;2023-10-09T03:53:20;101807.88;;;13.57;72.55
80502;BME280;70023;51.190;6.808;2023-10-09T03:58:21;101806.84;;;13.58;72.62
80502;BME280;70023;51.190;6.808;2023-10-09T04:03:25;101796.94;;;13.58;72.09
80502;BME280;70023;51.190;6.808;2023-10-09T04:08:26;101815.50;;;13.60;72.25
80502;BME280;70023;51.190;6.808;2023-10-09T04:13:33;101791.09;;;13.61;71.82
80502;BME280;70023;51.190;6.808;2023-10-09T04:18:34;101800.81;;;13.62;72.36
80502;BME280;70023;51.190;6.808;2023-10-09T04:23:38;101797.09;;;13.63;72.29
80502;BME280;70023;51.190;6.808;2023-10-09T04:28:58;101807.59;;;13.65;72.15
80502;BME280;70023;51.190;6.808;2023-10-09T04:34:06;101796.03;;;13.64;72.20
80502;BME280;70023;51.190;6.808;2023-10-09T04:39:28;101798.72;;;13.64;72.30
80502;BME280;70023;51.190;6.808;2023-10-09T04:44:29;101805.75;;;13.65;71.96
80502;BME280;70023;51.190;6.808;2023-10-09T04:49:36;101801.22;;;13.66;72.25
80502;BME280;70023;51.190;6.808;2023-10-09T04:55:02;101802.84;;;13.67;71.86
80502;BME280;70023;51.190;6.808;2023-10-09T05:00:15;101776.00;;;13.67;71.79
80502;BME280;70023;51.190;6.808;2023-10-09T05:05:28;101781.16;;;13.68;71.65
80502;BME280;70023;51.190;6.808;2023-10-09T05:10:42;101782.78;;;13.69;71.82
80502;BME280;70023;51.190;6.808;2023-10-09T05:16:00;101782.78;;;13.69;71.70
80502;BME280;70023;51.190;6.808;2023-10-09T05:21:03;101772.66;;;13.71;70.80
80502;BME280;70023;51.190;6.808;2023-10-09T05:26:13;101761.91;;;13.71;71.65
80502;BME280;70023;51.190;6.808;2023-10-09T05:31:35;101777.00;;;13.72;71.44
80502;BME280;70023;51.190;6.808;2023-10-09T05:36:55;101789.34;;;13.73;70.99
80502;BME280;70023;51.190;6.808;2023-10-09T05:42:11;101819.72;;;13.74;71.46
80502;BME280;70023;51.190;6.808;2023-10-09T05:47:17;101802.78;;;13.73;71.48
80502;BME280;70023;51.190;6.808;2023-10-09T05:52:28;101825.91;;;13.74;71.08
80502;BME280;70023;51.190;6.808;2023-10-09T05:57:53;101819.28;;;13.77;71.01
80502;BME280;70023;51.190;6.808;2023-10-09T06:03:13;101806.47;;;13.79;70.99
80502;BME280;70023;51.190;6.808;2023-10-09T06:08:19;101792.00;;;13.80;71.04
80502;BME280;70023;51.190;6.808;2023-10-09T06:13:38;101810.38;;;13.83;71.08
80502;BME280;70023;51.190;6.808;2023-10-09T06:18:46;101822.31;;;13.87;70.97
80502;BME280;70023;51.190;6.808;2023-10-09T06:24:06;101847.06;;;13.89;70.36
80502;BME280;70023;51.190;6.808;2023-10-09T06:29:13;101869.56;;;13.94;70.52
80502;BME280;70023;51.190;6.808;2023-10-09T06:34:15;101881.50;;;13.98;70.38
80502;BME280;70023;51.190;6.808;2023-10-09T06:39:16;101878.75;;;14.05;70.16
80502;BME280;70023;51.190;6.808;2023-10-09T06:44:36;101885.72;;;14.13;70.14
80502;BME280;70023;51.190;6.808;2023-10-09T06:49:52;101887.53;;;14.19;69.64
80502;BME280;70023;51.190;6.808;2023-10-09T06:55:28;101879.19;;;14.27;69.84
80502;BME280;70023;51.190;6.808;2023-10-09T07:00:51;101875.66;;;14.33;69.76
80502;BME280;70023;51.190;6.808;2023-10-09T07:06:05;101883.66;;;14.39;69.67
80502;BME280;70023;51.190;6.808;2023-10-09T07:11:10;101872.03;;;14.45;69.49
80502;BME280;70023;51.190;6.808;2023-10-09T07:16:42;101877.91;;;14.54;69.18
80502;BME280;70023;51.190;6.808;2023-10-09T07:21:57;101876.97;;;14.67;68.76
80502;BME280;70023;51.190;6.808;2023-10-09T07:27:03;101880.78;;;14.77;68.43
80502;BME280;70023;51.190;6.808;2023-10-09T07:32:09;101874.88;;;14.87;68.18
80502;BME280;70023;51.190;6.808;2023-10-09T07:37:23;101881.38;;;14.97;68.15
80502;BME280;70023;51.190;6.808;2023-10-09T07:42:30;101878.97;;;15.07;67.68
80502;BME280;70023;51.190;6.808;2023-10-09T07:47:40;101878.22;;;15.18;67.80
80502;BME280;70023;51.190;6.808;2023-10-09T07:53:07;101883.28;;;15.26;67.49
80502;BME280;70023;51.190;6.808;2023-10-09T07:58:26;101877.00;;;15.33;67.39
80502;BME280;70023;51.190;6.808;2023-10-09T08:03:28;101842.50;;;15.41;67.61
80502;BME280;70023;51.190;6.808;2023-10-09T08:08:33;101859.19;;;15.50;67.66
80502;BME280;70023;51.190;6.808;2023-10-09T08:13:34;101867.56;;;15.60;67.67
80502;BME280;70023;51.190;6.808;2023-10-09T08:18:56;101846.94;;;15.65;67.40
80502;BME280;70023;51.190;6.808;2023-10-09T08:23:57;101834.44;;;15.71;67.75
80502;BME280;70023;51.190;6.808;2023-10-09T08:29:04;101902.25;;;15.79;66.98
80502;BME280;70023;51.190;6.808;2023-10-09T08:34:19;101936.47;;;15.90;67.43
80502;BME280;70023;51.190;6.808;2023-10-09T08:39:24;101943.75;;;16.02;66.86
80502;BME280;70023;51.190;6.808;2023-10-09T08:44:26;101947.75;;;16.11;66.88
80502;BME280;70023;51.190;6.808;2023-10-09T08:49:31;101906.19;;;16.18;66.45
80502;BME280;70023;51.190;6.808;2023-10-09T08:54:37;101889.09;;;16.24;66.75
80502;BME280;70023;51.190;6.808;2023-10-09T08:59:41;101852.88;;;16.32;66.80
80502;BME280;70023;51.190;6.808;2023-10-09T09:04:42;101872.00;;;16.42;66.72
80502;BME280;70023;51.190;6.808;2023-10-09T09:09:55;101870.00;;;16.49;66.04
80502;BME280;70023;51.190;6.808;2023-10-09T09:14:57;101839.19;;;16.56;65.90
80502;BME280;70023;51.190;6.808;2023-10-09T09:19:59;101809.63;;;16.62;66.02
80502;BME280;70023;51.190;6.808;2023-10-09T09:25:10;101805.63;;;16.76;65.74
80502;BME280;70023;51.190;6.808;2023-10-09T09:30:28;101807.44;;;16.87;66.03
80502;BME280;70023;51.190;6.808;2023-10-09T09:35:33;101808.59;;;17.02;65.52
80502;BME280;70023;51.190;6.808;2023-10-09T09:40:34;101822.94;;;17.19;65.11
80502;BME280;70023;51.190;6.808;2023-10-09T09:45:41;101839.19;;;17.36;65.07
80502;BME280;70023;51.190;6.808;2023-10-09T09:50:48;101848.41;;;17.52;64.51
80502;BME280;70023;51.190;6.808;2023-10-09T09:55:54;101828.38;;;17.64;64.35
80502;BME280;70023;51.190;6.808;2023-10-09T10:01:00;101836.16;;;17.77;64.27
80502;BME280;70023;51.190;6.808;2023-10-09T10:06:17;101835.34;;;17.94;64.79
80502;BME280;70023;51.190;6.808;2023-10-09T10:17:06;101832.84;;;18.80;67.74
80502;BME280;70023;51.190;6.808;2023-10-09T10:22:24;101834.75;;;19.06;68.05
80502;BME280;70023;51.190;6.808;2023-10-09T10:33:11;101831.84;;;19.35;67.92
80502;BME280;70023;51.190;6.808;2023-10-09T10:38:21;101844.38;;;19.41;67.47
80502;BME280;70023;51.190;6.808;2023-10-09T10:43:43;101848.53;;;19.48;67.25
80502;BME280;70023;51.190;6.808;2023-10-09T10:54:45;101869.59;;;19.68;66.20
80502;BME280;70023;51.190;6.808;2023-10-09T10:59:46;101870.19;;;19.75;65.82
80502;BME280;70023;51.190;6.808;2023-10-09T11:04:49;101869.47;;;19.84;65.17
80502;BME280;70023;51.190;6.808;2023-10-09T11:10:13;101861.16;;;19.96;64.97
80502;BME280;70023;51.190;6.808;2023-10-09T11:15:30;101856.31;;;20.03;64.98
80502;BME280;70023;51.190;6.808;2023-10-09T11:20:44;101852.91;;;20.13;64.92
80502;BME280;70023;51.190;6.808;2023-10-09T11:26:04;101845.69;;;20.28;64.88
80502;BME280;70023;51.190;6.808;2023-10-09T11:31:25;101850.69;;;20.41;64.39
80502;BME280;70023;51.190;6.808;2023-10-09T11:36:26;101854.78;;;20.49;63.96
80502;BME280;70023;51.190;6.808;2023-10-09T11:41:39;101851.56;;;20.57;64.11
80502;BME280;70023;51.190;6.808;2023-10-09T11:46:41;101845.38;;;20.67;64.15
80502;BME280;70023;51.190;6.808;2023-10-09T11:52:04;101836.22;;;20.78;63.75
80502;BME280;70023;51.190;6.808;2023-10-09T11:57:09;101846.28;;;20.87;63.86
80502;BME280;70023;51.190;6.808;2023-10-09T12:02:10;101839.25;;;20.96;63.90
80502;BME280;70023;51.190;6.808;2023-10-09T12:07:12;101840.16;;;21.07;63.87
80502;BME280;70023;51.190;6.808;2023-10-09T12:12:13;101840.16;;;21.17;63.76
80502;BME280;70023;51.190;6.808;2023-10-09T12:17:14;101826.06;;;21.30;63.48
80502;BME280;70023;51.190;6.808;2023-10-09T12:22:15;101823.38;;;21.40;63.64
80502;BME280;70023;51.190;6.808;2023-10-09T12:27:16;101823.41;;;21.50;63.49
80502;BME280;70023;51.190;6.808;2023-10-09T12:32:20;101823.13;;;21.57;63.29
80502;BME280;70023;51.190;6.808;2023-10-09T12:37:21;101820.94;;;21.64;63.19
80502;BME280;70023;51.190;6.808;2023-10-09T12:42:22;101817.41;;;21.68;63.42
80502;BME280;70023;51.190;6.808;2023-10-09T12:47:23;101806.28;;;21.75;63.20
80502;BME280;70023;51.190;6.808;2023-10-09T12:52:25;101813.63;;;21.79;63.14
80502;BME280;70023;51.190;6.808;2023-10-09T12:57:29;101816.38;;;21.85;62.57
80502;BME280;70023;51.190;6.808;2023-10-09T13:02:30;101821.53;;;21.91;62.57
80502;BME280;70023;51.190;6.808;2023-10-09T13:07:31;101824.50;;;21.95;62.78
80502;BME280;70023;51.190;6.808;2023-10-09T13:12:33;101821.78;;;22.00;62.70
80502;BME280;70023;51.190;6.808;2023-10-09T13:17:39;101842.19;;;22.02;62.89
80502;BME280;70023;51.190;6.808;2023-10-09T13:22:41;101847.38;;;22.04;62.86
80502;BME280;70023;51.190;6.808;2023-10-09T13:27:46;101843.28;;;22.06;62.74
80502;BME280;70023;51.190;6.808;2023-10-09T13:32:50;101836.75;;;22.07;62.99
80502;BME280;70023;51.190;6.808;2023-10-09T13:37:51;101825.59;;;22.09;63.15
80502;BME280;70023;51.190;6.808;2023-10-09T13:42:55;101824.78;;;22.13;63.00
80502;BME280;70023;51.190;6.808;2023-10-09T13:47:59;101825.56;;;22.19;62.87
80502;BME280;70023;51.190;6.808;2023-10-09T13:53:03;101822.06;;;22.18;62.90
80502;BME280;70023;51.190;6.808;2023-10-09T13:58:10;101825.03;;;22.22;62.90
80502;BME280;70023;51.190;6.808;2023-10-09T14:03:13;101810.06;;;22.24;62.85
80502;BME280;70023;51.190;6.808;2023-10-09T14:08:20;101825.03;;;22.27;62.89
80502;BME280;70023;51.190;6.808;2023-10-09T14:13:22;101823.94;;;22.28;62.81
80502;BME280;70023;51.190;6.808;2023-10-09T14:18:28;101840.25;;;22.33;62.82
80502;BME280;70023;51.190;6.808;2023-10-09T14:23:30;101826.91;;;22.36;62.60
80502;BME280;70023;51.190;6.808;2023-10-09T14:28:34;101813.81;;;22.38;62.89
80502;BME280;70023;51.190;6.808;2023-10-09T14:33:36;101818.72;;;22.41;62.64
80502;BME280;70023;51.190;6.808;2023-10-09T14:38:37;101816.00;;;22.41;62.76
80502;BME280;70023;51.190;6.808;2023-10-09T14:43:38;101813.56;;;22.45;62.72
80502;BME280;70023;51.190;6.808;2023-10-09T14:48:40;101814.34;;;22.45;62.60
80502;BME280;70023;51.190;6.808;2023-10-09T14:53:45;101807.81;;;22.46;62.92
80502;BME280;70023;51.190;6.808;2023-10-09T14:58:46;101805.38;;;22.50;62.93
80502;BME280;70023;51.190;6.808;2023-10-09T15:03:49;101802.06;;;22.53;62.88
80502;BME280;70023;51.190;6.808;2023-10-09T15:08:58;101792.53;;;22.56;62.75
80502;BME280;70023;51.190;6.808;2023-10-09T15:14:09;101790.34;;;22.58;62.76
80502;BME280;70023;51.190;6.808;2023-10-09T15:19:10;101792.81;;;22.59;62.54
80502;BME280;70023;51.190;6.808;2023-10-09T15:24:11;101807.00;;;22.61;62.82
80502;BME280;70023;51.190;6.808;2023-10-09T15:29:15;101809.16;;;22.59;62.78
80502;BME280;70023;51.190;6.808;2023-10-09T15:34:19;101802.88;;;22.59;62.96
80502;BME280;70023;51.190;6.808;2023-10-09T15:39:21;101814.06;;;22.57;62.97
80502;BME280;70023;51.190;6.808;2023-10-09T15:44:23;101820.06;;;22.54;62.94
80502;BME280;70023;51.190;6.808;2023-10-09T15:49:28;101823.84;;;22.53;63.04
80502;BME280;70023;51.190;6.808;2023-10-09T15:54:33;101829.31;;;22.48;63.16
80502;BME280;70023;51.190;6.808;2023-10-09T15:59:34;101828.78;;;22.41;63.37
80502;BME280;70023;51.190;6.808;2023-10-09T16:04:36;101820.38;;;22.32;63.37
80502;BME280;70023;51.190;6.808;2023-10-09T16:09:38;101829.66;;;22.21;63.44
80502;BME280;70023;51.190;6.808;2023-10-09T16:14:39;101829.13;;;22.09;63.79
80502;BME280;70023;51.190;6.808;2023-10-09T16:19:41;101821.78;;;21.95;63.44
80502;BME280;70023;51.190;6.808;2023-10-09T16:24:42;101825.28;;;21.80;63.85
80502;BME280;70023;51.190;6.808;2023-10-09T16:29:44;101830.75;;;21.65;64.67
80502;BME280;70023;51.190;6.808;2023-10-09T16:34:50;101828.56;;;21.47;65.65
80502;BME280;70023;51.190;6.808;2023-10-09T16:39:51;101835.31;;;21.29;66.12
80502;BME280;70023;51.190;6.808;2023-10-09T16:44:58;101845.06;;;21.15;66.22
80502;BME280;70023;51.190;6.808;2023-10-09T16:50:00;101851.22;;;21.00;66.88
80502;BME280;70023;51.190;6.808;2023-10-09T16:55:01;101862.59;;;20.87;66.78
80502;BME280;70023;51.190;6.808;2023-10-09T17:00:02;101854.66;;;20.76;67.51
80502;BME280;70023;51.190;6.808;2023-10-09T17:05:04;101849.72;;;20.63;67.59
80502;BME280;70023;51.190;6.808;2023-10-09T17:10:12;101860.50;;;20.52;68.04
80502;BME280;70023;51.190;6.808;2023-10-09T17:15:17;101857.72;;;20.42;67.90
80502;BME280;70023;51.190;6.808;2023-10-09T17:20:18;101872.31;;;20.31;68.44
80502;BME280;70023;51.190;6.808;2023-10-09T17:25:21;101884.75;;;20.22;68.38
80502;BME280;70023;51.190;6.808;2023-10-09T17:30:23;101888.94;;;20.13;68.89
80502;BME280;70023;51.190;6.808;2023-10-09T17:35:26;101883.75;;;20.07;68.40
80502;BME280;70023;51.190;6.808;2023-10-09T17:40:27;101887.19;;;19.97;68.72
80502;BME280;70023;51.190;6.808;2023-10-09T17:45:28;101893.91;;;19.90;68.78
80502;BME280;70023;51.190;6.808;2023-10-09T17:50:30;101898.16;;;19.80;68.86
80502;BME280;70023;51.190;6.808;2023-10-09T17:55:31;101902.16;;;19.73;69.22
80502;BME280;70023;51.190;6.808;2023-10-09T18:00:38;101912.63;;;19.64;69.22
80502;BME280;70023;51.190;6.808;2023-10-09T18:05:43;101906.31;;;19.54;69.71
80502;BME280;70023;51.190;6.808;2023-10-09T18:10:47;101914.06;;;19.45;69.77
80502;BME280;70023;51.190;6.808;2023-10-09T18:15:50;101918.53;;;19.35;70.37
80502;BME280;70023;51.190;6.808;2023-10-09T18:21:07;101919.53;;;19.29;70.19
80502;BME280;70023;51.190;6.808;2023-10-09T18:26:09;101931.38;;;19.23;70.08
80502;BME280;70023;51.190;6.808;2023-10-09T18:31:14;101931.31;;;19.17;70.12
80502;BME280;70023;51.190;6.808;2023-10-09T18:36:18;101930.97;;;19.14;70.18
80502;BME280;70023;51.190;6.808;2023-10-09T18:41:20;101931.75;;;19.09;70.28
80502;BME280;70023;51.190;6.808;2023-10-09T18:46:22;101924.13;;;19.06;70.28
80502;BME280;70023;51.190;6.808;2023-10-09T18:51:23;101925.19;;;19.05;70.18
80502;BME280;70023;51.190;6.808;2023-10-09T18:56:25;101912.97;;;19.03;70.25
80502;BME280;70023;51.190;6.808;2023-10-09T19:01:28;101919.16;;;18.98;70.25
80502;BME280;70023;51.190;6.808;2023-10-09T19:06:29;101927.50;;;18.97;70.02
80502;BME280;70023;51.190;6.808;2023-10-09T19:11:32;101930.75;;;18.94;70.00
80502;BME280;70023;51.190;6.808;2023-10-09T19:16:34;101932.84;;;18.92;70.02
80502;BME280;70023;51.190;6.808;2023-10-09T19:21:35;101925.25;;;18.89;70.11
80502;BME280;70023;51.190;6.808;2023-10-09T19:26:38;101918.44;;;18.86;69.92
80502;BME280;70023;51.190;6.808;2023-10-09T19:31:42;101925.41;;;18.82;70.21
80502;BME280;70023;51.190;6.808;2023-10-09T19:36:43;101930.25;;;18.80;70.24
80502;BME280;70023;51.190;6.808;2023-10-09T19:41:46;101931.00;;;18.76;70.19
80502;BME280;70023;51.190;6.808;2023-10-09T19:46:47;101939.06;;;18.71;70.43
80502;BME280;70023;51.190;6.808;2023-10-09T19:51:48;101943.81;;;18.64;70.33
80502;BME280;70023;51.190;6.808;2023-10-09T19:56:49;101946.72;;;18.57;70.57
80502;BME280;70023;51.190;6.808;2023-10-09T20:01:51;101946.28;;;18.48;70.89
80502;BME280;70023;51.190;6.808;2023-10-09T20:06:52;101943.38;;;18.38;70.84
80502;BME280;70023;51.190;6.808;2023-10-09T20:11:54;101951.09;;;18.30;71.25
80502;BME280;70023;51.190;6.808;2023-10-09T20:16:57;101950.72;;;18.21;71.26
80502;BME280;70023;51.190;6.808;2023-10-09T20:21:59;101954.63;;;18.14;71.25
80502;BME280;70023;51.190;6.808;2023-10-09T20:27:00;101956.31;;;18.03;71.45
80502;BME280;70023;51.190;6.808;2023-10-09T20:32:01;101969.19;;;17.96;71.71
80502;BME280;70023;51.190;6.808;2023-10-09T20:37:03;101965.56;;;17.90;71.74
80502;BME280;70023;51.190;6.808;2023-10-09T20:42:04;101969.00;;;17.86;71.69
80502;BME280;70023;51.190;6.808;2023-10-09T20:47:05;101968.66;;;17.82;71.57
80502;BME280;70023;51.190;6.808;2023-10-09T20:52:06;101972.66;;;17.80;71.58
80502;BME280;70023;51.190;6.808;2023-10-09T20:57:07;101968.78;;;17.76;71.62
80502;BME280;70023;51.190;6.808;2023-10-09T21:02:09;101966.59;;;17.73;71.56
80502;BME280;70023;51.190;6.808;2023-10-09T21:07:10;101974.09;;;17.71;71.36
80502;BME280;70023;51.190;6.808;2023-10-09T21:12:11;101974.00;;;17.66;71.33
80502;BME280;70023;51.190;6.808;2023-10-09T21:17:15;101974.97;;;17.60;71.64
80502;BME280;70023;51.190;6.808;2023-10-09T21:22:17;101979.44;;;17.54;71.50
80502;BME280;70023;51.190;6.808;2023-10-09T21:27:18;101968.50;;;17.49;71.52
80502;BME280;70023;51.190;6.808;2023-10-09T21:32:19;101965.13;;;17.42;71.89
80502;BME280;70023;51.190;6.808;2023-10-09T21:37:21;101973.38;;;17.36;71.75
80502;BME280;70023;51.190;6.808;2023-10-09T21:42:22;101967.28;;;17.29;71.76
80502;BME280;70023;51.190;6.808;2023-10-09T21:47:23;101979.25;;;17.21;72.14
80502;BME280;70023;51.190;6.808;2023-10-09T21:52:24;101969.06;;;17.11;72.18
80502;BME280;70023;51.190;6.808;2023-10-09T21:57:25;101967.09;;;17.07;72.36
80502;BME280;70023;51.190;6.808;2023-10-09T22:02:26;101964.75;;;16.99;72.57
80502;BME280;70023;51.190;6.808;2023-10-09T22:07:30;101965.09;;;16.91;72.52
80502;BME280;70023;51.190;6.808;2023-10-09T22:12:31;101955.72;;;16.82;72.80
80502;BME280;70023;51.190;6.808;2023-10-09T22:17:32;101956.69;;;16.76;72.38
80502;BME280;70023;51.190;6.808;2023-10-09T22:22:33;101957.03;;;16.68;72.63
80502;BME280;70023;51.190;6.808;2023-10-09T22:27:34;101954.91;;;16.58;72.96
80502;BME280;70023;51.190;6.808;2023-10-09T22:32:40;101956.66;;;16.52;72.70
80502;BME280;70023;51.190;6.808;2023-10-09T22:37:42;101956.75;;;16.46;73.34
80502;BME280;70023;51.190;6.808;2023-10-09T22:42:43;101954.38;;;16.38;72.83
80502;BME280;70023;51.190;6.808;2023-10-09T22:47:45;101954.75;;;16.30;73.03
80502;BME280;70023;51.190;6.808;2023-10-09T22:52:51;101956.72;;;16.23;73.16
80502;BME280;70023;51.190;6.808;2023-10-09T22:57:53;101953.53;;;16.14;73.63
80502;BME280;70023;51.190;6.808;2023-10-09T23:02:56;101964.63;;;16.06;73.57
80502;BME280;70023;51.190;6.808;2023-10-09T23:07:57;101964.72;;;16.00;73.81
80502;BME280;70023;51.190;6.808;2023-10-09T23:13:02;101966.69;;;15.92;73.23
80502;BME280;70023;51.190;6.808;2023-10-09T23:18:17;101964.31;;;15.84;73.32
80502;BME280;70023;51.190;6.808;2023-10-09T23:23:34;101961.16;;;15.76;73.68
80502;BME280;70023;51.190;6.808;2023-10-09T23:28:40;101953.97;;;15.70;73.85
80502;BME280;70023;51.190;6.808;2023-10-09T23:33:54;101953.03;;;15.64;74.04
80502;BME280;70023;51.190;6.808;2023-10-09T23:38:55;101969.25;;;15.58;73.53
80502;BME280;70023;51.190;6.808;2023-10-09T23:44:09;101961.72;;;15.48;73.93
80502;BME280;70023;51.190;6.808;2023-10-09T23:49:10;101966.13;;;15.43;73.48
80502;BME280;70023;51.190;6.808;2023-10-09T23:54:18;101963.28;;;15.38;73.65
80502;BME280;70023;51.190;6.808;2023-10-09T23:59:23;101963.34;;;15.31;74.25
